sensor_id;sensor_type;location;lat;lon;timestamp;P1;durP1;ratioP1;P2;durP2;ratioP2
12429;SDS011;6279;42.192;24.326;2023-02-01T00:00:15;6.23;;;3.50;;
12429;SDS011;6279;42.192;24.326;2023-02-01T00:02:40;5.53;;;3.40;;
12429;SDS011;6279;42.192;24.326;2023-02-01T00:05:07;4.83;;;2.40;;
12429;SDS011;6279;42.192;24.326;2023-02-01T00:07:34;5.57;;;3.23;;
12429;SDS011;6279;42.192;24.326;2023-02-01T00:10:00;2.87;;;2.23;;
12429;SDS011;6279;42.192;24.326;2023-02-01T00:12:25;2.87;;;1.90;;
12429;SDS011;6279;42.192;24.326;2023-02-01T00:14:50;4.83;;;2.37;;
12429;SDS011;6279;42.192;24.326;2023-02-01T00:17:16;3.50;;;2.10;;
12429;SDS011;6279;42.192;24.326;2023-02-01T00:19:41;2.93;;;2.20;;
12429;SDS011;6279;42.192;24.326;2023-02-01T00:22:06;4.27;;;2.83;;
12429;SDS011;6279;42.192;24.326;2023-02-01T00:24:32;2.90;;;2.23;;
12429;SDS011;6279;42.192;24.326;2023-02-01T00:26:57;2.37;;;2.07;;
12429;SDS011;6279;42.192;24.326;2023-02-01T00:29:23;5.03;;;3.20;;
12429;SDS011;6279;42.192;24.326;2023-02-01T00:31:49;4.67;;;2.70;;
12429;SDS011;6279;42.192;24.326;2023-02-01T00:34:16;2.90;;;2.40;;
12429;SDS011;6279;42.192;24.326;2023-02-01T00:36:42;4.63;;;2.40;;
12429;SDS011;6279;42.192;24.326;2023-02-01T00:39:08;2.90;;;2.07;;
12429;SDS011;6279;42.192;24.326;2023-02-01T00:41:34;3.07;;;2.37;;
12429;SDS011;6279;42.192;24.326;2023-02-01T00:44:00;2.63;;;2.00;;
12429;SDS011;6279;42.192;24.326;2023-02-01T00:46:26;3.13;;;2.20;;
12429;SDS011;6279;42.192;24.326;2023-02-01T00:48:52;3.20;;;2.00;;
12429;SDS011;6279;42.192;24.326;2023-02-01T00:51:19;3.23;;;1.93;;
12429;SDS011;6279;42.192;24.326;2023-02-01T00:53:49;2.13;;;1.67;;
12429;SDS011;6279;42.192;24.326;2023-02-01T00:56:15;2.83;;;1.97;;
12429;SDS011;6279;42.192;24.326;2023-02-01T00:58:40;2.07;;;1.70;;
12429;SDS011;6279;42.192;24.326;2023-02-01T01:03:38;1.90;;;1.70;;
12429;SDS011;6279;42.192;24.326;2023-02-01T01:06:06;1.93;;;1.70;;
12429;SDS011;6279;42.192;24.326;2023-02-01T01:08:39;2.77;;;1.97;;
12429;SDS011;6279;42.192;24.326;2023-02-01T01:11:10;3.53;;;1.90;;
12429;SDS011;6279;42.192;24.326;2023-02-01T01:13:37;2.77;;;1.80;;
12429;SDS011;6279;42.192;24.326;2023-02-01T01:16:06;2.20;;;1.60;;
12429;SDS011;6279;42.192;24.326;2023-02-01T01:18:33;2.50;;;1.90;;
12429;SDS011;6279;42.192;24.326;2023-02-01T01:20:59;2.83;;;1.80;;
12429;SDS011;6279;42.192;24.326;2023-02-01T01:23:25;2.87;;;1.63;;
12429;SDS011;6279;42.192;24.326;2023-02-01T01:25:51;3.47;;;2.43;;
12429;SDS011;6279;42.192;24.326;2023-02-01T01:28:17;2.30;;;1.70;;
12429;SDS011;6279;42.192;24.326;2023-02-01T01:30:42;3.37;;;1.63;;
12429;SDS011;6279;42.192;24.326;2023-02-01T01:33:07;2.37;;;1.50;;
12429;SDS011;6279;42.192;24.326;2023-02-01T01:35:33;2.03;;;1.47;;
12429;SDS011;6279;42.192;24.326;2023-02-01T01:37:59;1.43;;;1.33;;
12429;SDS011;6279;42.192;24.326;2023-02-01T01:40:26;1.67;;;1.57;;
12429;SDS011;6279;42.192;24.326;2023-02-01T01:42:53;1.83;;;1.57;;
12429;SDS011;6279;42.192;24.326;2023-02-01T01:45:26;2.27;;;1.60;;
12429;SDS011;6279;42.192;24.326;2023-02-01T01:47:53;2.40;;;1.60;;
12429;SDS011;6279;42.192;24.326;2023-02-01T01:50:23;3.40;;;1.77;;
12429;SDS011;6279;42.192;24.326;2023-02-01T01:52:55;2.00;;;1.77;;
12429;SDS011;6279;42.192;24.326;2023-02-01T01:55:24;2.10;;;1.80;;
12429;SDS011;6279;42.192;24.326;2023-02-01T01:57:53;2.87;;;1.90;;
12429;SDS011;6279;42.192;24.326;2023-02-01T02:00:26;1.60;;;1.50;;
12429;SDS011;6279;42.192;24.326;2023-02-01T02:03:35;2.63;;;1.80;;
12429;SDS011;6279;42.192;24.326;2023-02-01T02:05:45;2.27;;;1.90;;
12429;SDS011;6279;42.192;24.326;2023-02-01T02:08:14;3.37;;;2.13;;
12429;SDS011;6279;42.192;24.326;2023-02-01T02:10:39;2.40;;;1.93;;
12429;SDS011;6279;42.192;24.326;2023-02-01T02:13:23;3.03;;;2.17;;
12429;SDS011;6279;42.192;24.326;2023-02-01T02:16:12;2.50;;;2.13;;
12429;SDS011;6279;42.192;24.326;2023-02-01T02:33:37;2.57;;;1.77;;
12429;SDS011;6279;42.192;24.326;2023-02-01T02:42:02;3.47;;;2.63;;
12429;SDS011;6279;42.192;24.326;2023-02-01T02:45:09;2.57;;;2.10;;
12429;SDS011;6279;42.192;24.326;2023-02-01T02:48:11;3.27;;;2.37;;
12429;SDS011;6279;42.192;24.326;2023-02-01T02:50:46;2.87;;;2.50;;
12429;SDS011;6279;42.192;24.326;2023-02-01T02:53:38;2.50;;;2.10;;
12429;SDS011;6279;42.192;24.326;2023-02-01T02:56:25;5.70;;;4.10;;
12429;SDS011;6279;42.192;24.326;2023-02-01T02:59:11;6.07;;;4.17;;
12429;SDS011;6279;42.192;24.326;2023-02-01T03:01:57;4.67;;;3.80;;
12429;SDS011;6279;42.192;24.326;2023-02-01T03:04:41;4.53;;;3.03;;
12429;SDS011;6279;42.192;24.326;2023-02-01T03:10:13;3.13;;;2.70;;
12429;SDS011;6279;42.192;24.326;2023-02-01T03:12:49;3.03;;;2.50;;
12429;SDS011;6279;42.192;24.326;2023-02-01T03:15:23;5.40;;;3.10;;
12429;SDS011;6279;42.192;24.326;2023-02-01T03:17:54;3.73;;;3.00;;
12429;SDS011;6279;42.192;24.326;2023-02-01T03:20:21;4.50;;;2.87;;
12429;SDS011;6279;42.192;24.326;2023-02-01T03:22:48;3.67;;;2.57;;
12429;SDS011;6279;42.192;24.326;2023-02-01T03:25:18;2.87;;;2.57;;
12429;SDS011;6279;42.192;24.326;2023-02-01T03:27:49;3.20;;;2.47;;
12429;SDS011;6279;42.192;24.326;2023-02-01T03:30:25;3.53;;;2.83;;
12429;SDS011;6279;42.192;24.326;2023-02-01T03:32:58;3.87;;;2.57;;
12429;SDS011;6279;42.192;24.326;2023-02-01T03:40:34;2.63;;;2.40;;
12429;SDS011;6279;42.192;24.326;2023-02-01T03:43:01;3.97;;;2.50;;
12429;SDS011;6279;42.192;24.326;2023-02-01T03:45:36;4.23;;;2.53;;
12429;SDS011;6279;42.192;24.326;2023-02-01T03:48:07;3.33;;;2.93;;
12429;SDS011;6279;42.192;24.326;2023-02-01T03:50:34;4.20;;;3.13;;
12429;SDS011;6279;42.192;24.326;2023-02-01T03:53:07;3.73;;;3.23;;
12429;SDS011;6279;42.192;24.326;2023-02-01T03:55:36;4.37;;;2.93;;
12429;SDS011;6279;42.192;24.326;2023-02-01T04:00:27;3.63;;;3.30;;
12429;SDS011;6279;42.192;24.326;2023-02-01T04:02:53;4.50;;;2.77;;
12429;SDS011;6279;42.192;24.326;2023-02-01T04:05:19;2.80;;;2.57;;
12429;SDS011;6279;42.192;24.326;2023-02-01T04:07:45;4.07;;;2.80;;
12429;SDS011;6279;42.192;24.326;2023-02-01T04:10:11;5.53;;;4.10;;
12429;SDS011;6279;42.192;24.326;2023-02-01T04:12:38;12.27;;;8.53;;
12429;SDS011;6279;42.192;24.326;2023-02-01T04:15:04;6.60;;;4.77;;
12429;SDS011;6279;42.192;24.326;2023-02-01T04:17:30;5.53;;;3.00;;
12429;SDS011;6279;42.192;24.326;2023-02-01T04:19:55;6.77;;;3.83;;
12429;SDS011;6279;42.192;24.326;2023-02-01T04:22:21;7.83;;;5.00;;
12429;SDS011;6279;42.192;24.326;2023-02-01T04:24:46;9.33;;;5.60;;
12429;SDS011;6279;42.192;24.326;2023-02-01T04:27:12;7.50;;;5.10;;
12429;SDS011;6279;42.192;24.326;2023-02-01T04:29:37;4.77;;;3.33;;
12429;SDS011;6279;42.192;24.326;2023-02-01T04:32:03;5.13;;;3.70;;
12429;SDS011;6279;42.192;24.326;2023-02-01T04:34:29;9.23;;;5.50;;
12429;SDS011;6279;42.192;24.326;2023-02-01T04:36:55;12.77;;;7.10;;
12429;SDS011;6279;42.192;24.326;2023-02-01T04:39:20;7.53;;;6.43;;
12429;SDS011;6279;42.192;24.326;2023-02-01T04:41:46;6.50;;;5.00;;
12429;SDS011;6279;42.192;24.326;2023-02-01T04:44:15;5.20;;;3.87;;
12429;SDS011;6279;42.192;24.326;2023-02-01T04:46:42;7.53;;;5.00;;
12429;SDS011;6279;42.192;24.326;2023-02-01T04:49:08;7.17;;;4.57;;
12429;SDS011;6279;42.192;24.326;2023-02-01T04:51:35;5.63;;;4.30;;
12429;SDS011;6279;42.192;24.326;2023-02-01T04:54:00;3.87;;;2.80;;
12429;SDS011;6279;42.192;24.326;2023-02-01T04:56:25;2.83;;;2.37;;
12429;SDS011;6279;42.192;24.326;2023-02-01T04:58:51;3.43;;;2.30;;
12429;SDS011;6279;42.192;24.326;2023-02-01T05:01:16;4.37;;;2.10;;
12429;SDS011;6279;42.192;24.326;2023-02-01T05:03:42;2.97;;;1.70;;
12429;SDS011;6279;42.192;24.326;2023-02-01T05:06:07;3.83;;;1.80;;
12429;SDS011;6279;42.192;24.326;2023-02-01T05:08:33;4.43;;;1.83;;
12429;SDS011;6279;42.192;24.326;2023-02-01T05:10:59;4.87;;;1.90;;
12429;SDS011;6279;42.192;24.326;2023-02-01T05:13:27;3.47;;;1.90;;
12429;SDS011;6279;42.192;24.326;2023-02-01T05:16:11;4.17;;;2.00;;
12429;SDS011;6279;42.192;24.326;2023-02-01T05:18:36;4.53;;;2.47;;
12429;SDS011;6279;42.192;24.326;2023-02-01T05:21:02;3.10;;;2.07;;
12429;SDS011;6279;42.192;24.326;2023-02-01T05:23:27;7.00;;;3.10;;
12429;SDS011;6279;42.192;24.326;2023-02-01T05:25:57;7.13;;;4.60;;
12429;SDS011;6279;42.192;24.326;2023-02-01T05:28:24;7.30;;;5.00;;
12429;SDS011;6279;42.192;24.326;2023-02-01T05:30:49;7.67;;;5.90;;
12429;SDS011;6279;42.192;24.326;2023-02-01T05:33:15;6.93;;;4.07;;
12429;SDS011;6279;42.192;24.326;2023-02-01T05:35:40;10.17;;;4.30;;
12429;SDS011;6279;42.192;24.326;2023-02-01T05:38:06;5.33;;;2.80;;
12429;SDS011;6279;42.192;24.326;2023-02-01T05:40:31;3.97;;;2.70;;
12429;SDS011;6279;42.192;24.326;2023-02-01T05:42:56;10.00;;;3.93;;
12429;SDS011;6279;42.192;24.326;2023-02-01T05:45:22;5.57;;;3.07;;
12429;SDS011;6279;42.192;24.326;2023-02-01T05:47:47;10.07;;;3.37;;
12429;SDS011;6279;42.192;24.326;2023-02-01T05:50:12;14.77;;;5.70;;
12429;SDS011;6279;42.192;24.326;2023-02-01T05:52:38;15.27;;;5.87;;
12429;SDS011;6279;42.192;24.326;2023-02-01T05:55:03;8.67;;;3.80;;
12429;SDS011;6279;42.192;24.326;2023-02-01T05:57:29;8.43;;;3.33;;
12429;SDS011;6279;42.192;24.326;2023-02-01T05:59:55;6.90;;;3.50;;
12429;SDS011;6279;42.192;24.326;2023-02-01T06:02:20;9.83;;;3.77;;
12429;SDS011;6279;42.192;24.326;2023-02-01T06:04:46;6.97;;;3.90;;
12429;SDS011;6279;42.192;24.326;2023-02-01T06:07:12;8.70;;;5.10;;
12429;SDS011;6279;42.192;24.326;2023-02-01T06:09:37;7.93;;;4.80;;
12429;SDS011;6279;42.192;24.326;2023-02-01T06:12:03;6.87;;;3.23;;
12429;SDS011;6279;42.192;24.326;2023-02-01T06:14:28;3.83;;;3.00;;
12429;SDS011;6279;42.192;24.326;2023-02-01T06:16:54;5.10;;;3.50;;
12429;SDS011;6279;42.192;24.326;2023-02-01T06:19:20;5.80;;;3.23;;
12429;SDS011;6279;42.192;24.326;2023-02-01T06:21:46;5.27;;;3.57;;
12429;SDS011;6279;42.192;24.326;2023-02-01T06:24:12;7.20;;;3.77;;
12429;SDS011;6279;42.192;24.326;2023-02-01T06:26:37;10.23;;;5.00;;
12429;SDS011;6279;42.192;24.326;2023-02-01T06:29:04;6.03;;;2.90;;
12429;SDS011;6279;42.192;24.326;2023-02-01T06:31:31;4.33;;;2.50;;
12429;SDS011;6279;42.192;24.326;2023-02-01T06:33:57;2.67;;;2.00;;
12429;SDS011;6279;42.192;24.326;2023-02-01T06:36:22;5.17;;;2.83;;
12429;SDS011;6279;42.192;24.326;2023-02-01T06:38:48;5.27;;;2.50;;
12429;SDS011;6279;42.192;24.326;2023-02-01T06:41:13;8.63;;;4.73;;
12429;SDS011;6279;42.192;24.326;2023-02-01T06:43:39;8.03;;;4.10;;
12429;SDS011;6279;42.192;24.326;2023-02-01T06:46:05;10.87;;;5.53;;
12429;SDS011;6279;42.192;24.326;2023-02-01T06:48:33;9.97;;;4.50;;
12429;SDS011;6279;42.192;24.326;2023-02-01T06:50:59;5.57;;;3.27;;
12429;SDS011;6279;42.192;24.326;2023-02-01T06:53:25;5.37;;;2.97;;
12429;SDS011;6279;42.192;24.326;2023-02-01T06:55:51;3.60;;;3.13;;
12429;SDS011;6279;42.192;24.326;2023-02-01T06:58:21;3.47;;;2.37;;
12429;SDS011;6279;42.192;24.326;2023-02-01T07:00:47;5.20;;;2.80;;
12429;SDS011;6279;42.192;24.326;2023-02-01T07:03:13;4.30;;;3.30;;
12429;SDS011;6279;42.192;24.326;2023-02-01T07:05:38;3.77;;;3.13;;
12429;SDS011;6279;42.192;24.326;2023-02-01T07:08:04;4.47;;;3.30;;
12429;SDS011;6279;42.192;24.326;2023-02-01T07:10:29;5.43;;;3.50;;
12429;SDS011;6279;42.192;24.326;2023-02-01T07:12:58;6.03;;;4.10;;
12429;SDS011;6279;42.192;24.326;2023-02-01T07:15:23;6.53;;;3.93;;
12429;SDS011;6279;42.192;24.326;2023-02-01T07:17:49;7.70;;;4.73;;
12429;SDS011;6279;42.192;24.326;2023-02-01T07:20:14;6.93;;;4.57;;
12429;SDS011;6279;42.192;24.326;2023-02-01T07:22:40;3.70;;;2.80;;
12429;SDS011;6279;42.192;24.326;2023-02-01T07:25:06;2.70;;;2.30;;
12429;SDS011;6279;42.192;24.326;2023-02-01T07:27:35;3.00;;;2.40;;
12429;SDS011;6279;42.192;24.326;2023-02-01T07:30:01;4.63;;;2.50;;
12429;SDS011;6279;42.192;24.326;2023-02-01T07:32:28;4.23;;;2.20;;
12429;SDS011;6279;42.192;24.326;2023-02-01T07:34:54;5.47;;;2.37;;
12429;SDS011;6279;42.192;24.326;2023-02-01T07:37:20;3.47;;;2.20;;
12429;SDS011;6279;42.192;24.326;2023-02-01T07:39:45;4.47;;;2.50;;
12429;SDS011;6279;42.192;24.326;2023-02-01T07:42:10;4.20;;;2.23;;
12429;SDS011;6279;42.192;24.326;2023-02-01T07:44:36;4.33;;;2.30;;
12429;SDS011;6279;42.192;24.326;2023-02-01T07:47:01;2.83;;;2.03;;
12429;SDS011;6279;42.192;24.326;2023-02-01T07:49:27;6.93;;;2.17;;
12429;SDS011;6279;42.192;24.326;2023-02-01T07:51:52;2.93;;;2.10;;
12429;SDS011;6279;42.192;24.326;2023-02-01T07:54:18;4.03;;;2.63;;
12429;SDS011;6279;42.192;24.326;2023-02-01T07:56:43;4.43;;;2.77;;
12429;SDS011;6279;42.192;24.326;2023-02-01T07:59:08;5.03;;;3.60;;
12429;SDS011;6279;42.192;24.326;2023-02-01T08:01:34;3.83;;;2.40;;
12429;SDS011;6279;42.192;24.326;2023-02-01T08:04:00;5.23;;;3.40;;
12429;SDS011;6279;42.192;24.326;2023-02-01T08:06:27;7.27;;;4.90;;
12429;SDS011;6279;42.192;24.326;2023-02-01T08:08:57;6.27;;;3.77;;
12429;SDS011;6279;42.192;24.326;2023-02-01T08:11:23;10.07;;;5.03;;
12429;SDS011;6279;42.192;24.326;2023-02-01T08:13:49;9.77;;;5.37;;
12429;SDS011;6279;42.192;24.326;2023-02-01T08:16:16;13.50;;;5.20;;
12429;SDS011;6279;42.192;24.326;2023-02-01T08:18:43;10.93;;;4.57;;
12429;SDS011;6279;42.192;24.326;2023-02-01T08:21:10;9.73;;;4.40;;
12429;SDS011;6279;42.192;24.326;2023-02-01T08:23:37;8.47;;;4.50;;
12429;SDS011;6279;42.192;24.326;2023-02-01T08:28:38;7.37;;;3.30;;
12429;SDS011;6279;42.192;24.326;2023-02-01T08:31:09;10.73;;;5.60;;
12429;SDS011;6279;42.192;24.326;2023-02-01T08:33:36;8.67;;;4.43;;
12429;SDS011;6279;42.192;24.326;2023-02-01T08:36:06;8.43;;;3.73;;
12429;SDS011;6279;42.192;24.326;2023-02-01T08:38:34;9.63;;;4.23;;
12429;SDS011;6279;42.192;24.326;2023-02-01T08:41:04;7.90;;;3.80;;
12429;SDS011;6279;42.192;24.326;2023-02-01T08:43:33;3.97;;;2.33;;
12429;SDS011;6279;42.192;24.326;2023-02-01T08:45:59;4.60;;;2.40;;
12429;SDS011;6279;42.192;24.326;2023-02-01T08:48:24;5.67;;;2.53;;
12429;SDS011;6279;42.192;24.326;2023-02-01T08:50:50;5.20;;;2.50;;
12429;SDS011;6279;42.192;24.326;2023-02-01T08:53:15;5.87;;;2.80;;
12429;SDS011;6279;42.192;24.326;2023-02-01T08:55:44;3.77;;;2.20;;
12429;SDS011;6279;42.192;24.326;2023-02-01T08:58:11;7.30;;;5.23;;
12429;SDS011;6279;42.192;24.326;2023-02-01T09:00:36;6.57;;;4.47;;
12429;SDS011;6279;42.192;24.326;2023-02-01T09:03:02;6.20;;;2.40;;
12429;SDS011;6279;42.192;24.326;2023-02-01T09:05:27;4.83;;;2.10;;
12429;SDS011;6279;42.192;24.326;2023-02-01T09:07:53;5.37;;;1.80;;
12429;SDS011;6279;42.192;24.326;2023-02-01T09:10:18;4.77;;;2.23;;
12429;SDS011;6279;42.192;24.326;2023-02-01T09:12:44;4.47;;;2.10;;
12429;SDS011;6279;42.192;24.326;2023-02-01T09:15:09;5.73;;;2.37;;
12429;SDS011;6279;42.192;24.326;2023-02-01T09:17:35;3.27;;;1.87;;
12429;SDS011;6279;42.192;24.326;2023-02-01T09:20:00;8.27;;;2.00;;
12429;SDS011;6279;42.192;24.326;2023-02-01T09:22:29;6.83;;;4.40;;
12429;SDS011;6279;42.192;24.326;2023-02-01T09:24:54;3.60;;;2.00;;
12429;SDS011;6279;42.192;24.326;2023-02-01T09:27:19;5.97;;;2.77;;
12429;SDS011;6279;42.192;24.326;2023-02-01T09:29:48;6.23;;;2.10;;
12429;SDS011;6279;42.192;24.326;2023-02-01T09:32:17;3.50;;;2.03;;
12429;SDS011;6279;42.192;24.326;2023-02-01T09:34:47;5.00;;;2.80;;
12429;SDS011;6279;42.192;24.326;2023-02-01T09:37:12;5.73;;;1.70;;
12429;SDS011;6279;42.192;24.326;2023-02-01T09:39:38;5.50;;;2.67;;
12429;SDS011;6279;42.192;24.326;2023-02-01T09:42:19;8.07;;;4.07;;
12429;SDS011;6279;42.192;24.326;2023-02-01T09:45:00;2.40;;;1.40;;
12429;SDS011;6279;42.192;24.326;2023-02-01T09:47:34;2.83;;;1.70;;
12429;SDS011;6279;42.192;24.326;2023-02-01T09:52:50;6.13;;;2.47;;
12429;SDS011;6279;42.192;24.326;2023-02-01T09:55:42;5.00;;;2.50;;
12429;SDS011;6279;42.192;24.326;2023-02-01T10:00:58;6.20;;;2.60;;
12429;SDS011;6279;42.192;24.326;2023-02-01T10:03:27;5.23;;;2.37;;
12429;SDS011;6279;42.192;24.326;2023-02-01T10:08:50;4.90;;;2.10;;
12429;SDS011;6279;42.192;24.326;2023-02-01T10:14:46;6.23;;;2.40;;
12429;SDS011;6279;42.192;24.326;2023-02-01T10:20:29;5.70;;;3.67;;
12429;SDS011;6279;42.192;24.326;2023-02-01T10:26:01;5.07;;;1.30;;
12429;SDS011;6279;42.192;24.326;2023-02-01T10:29:10;3.33;;;2.23;;
12429;SDS011;6279;42.192;24.326;2023-02-01T10:31:40;6.37;;;4.03;;
12429;SDS011;6279;42.192;24.326;2023-02-01T10:34:17;5.00;;;3.00;;
12429;SDS011;6279;42.192;24.326;2023-02-01T10:36:53;7.13;;;4.57;;
12429;SDS011;6279;42.192;24.326;2023-02-01T10:39:21;5.90;;;3.33;;
12429;SDS011;6279;42.192;24.326;2023-02-01T10:41:48;5.63;;;2.80;;
12429;SDS011;6279;42.192;24.326;2023-02-01T10:44:15;3.33;;;2.30;;
12429;SDS011;6279;42.192;24.326;2023-02-01T10:46:44;8.30;;;3.87;;
12429;SDS011;6279;42.192;24.326;2023-02-01T10:49:15;6.50;;;3.53;;
12429;SDS011;6279;42.192;24.326;2023-02-01T10:54:37;6.90;;;3.67;;
12429;SDS011;6279;42.192;24.326;2023-02-01T10:57:19;8.70;;;5.70;;
12429;SDS011;6279;42.192;24.326;2023-02-01T10:59:50;13.93;;;9.30;;
12429;SDS011;6279;42.192;24.326;2023-02-01T11:02:26;9.73;;;5.93;;
12429;SDS011;6279;42.192;24.326;2023-02-01T11:05:03;5.47;;;3.33;;
12429;SDS011;6279;42.192;24.326;2023-02-01T11:07:45;3.07;;;1.73;;
12429;SDS011;6279;42.192;24.326;2023-02-01T11:13:03;10.70;;;6.00;;
12429;SDS011;6279;42.192;24.326;2023-02-01T11:15:29;3.63;;;2.40;;
12429;SDS011;6279;42.192;24.326;2023-02-01T11:17:54;4.50;;;3.00;;
12429;SDS011;6279;42.192;24.326;2023-02-01T11:23:08;12.90;;;6.00;;
12429;SDS011;6279;42.192;24.326;2023-02-01T11:25:39;6.67;;;4.87;;
12429;SDS011;6279;42.192;24.326;2023-02-01T11:28:13;7.60;;;4.30;;
12429;SDS011;6279;42.192;24.326;2023-02-01T11:30:41;9.70;;;6.40;;
12429;SDS011;6279;42.192;24.326;2023-02-01T11:33:12;6.90;;;1.87;;
12429;SDS011;6279;42.192;24.326;2023-02-01T11:35:40;4.07;;;2.70;;
12429;SDS011;6279;42.192;24.326;2023-02-01T11:40:52;4.73;;;2.50;;
12429;SDS011;6279;42.192;24.326;2023-02-01T11:43:24;6.00;;;2.60;;
12429;SDS011;6279;42.192;24.326;2023-02-01T11:46:02;7.40;;;3.10;;
12429;SDS011;6279;42.192;24.326;2023-02-01T11:48:32;3.70;;;1.80;;
12429;SDS011;6279;42.192;24.326;2023-02-01T11:51:07;4.00;;;1.77;;
12429;SDS011;6279;42.192;24.326;2023-02-01T11:56:25;4.77;;;2.60;;
12429;SDS011;6279;42.192;24.326;2023-02-01T12:01:44;2.63;;;1.60;;
12429;SDS011;6279;42.192;24.326;2023-02-01T12:06:48;6.47;;;3.00;;
12429;SDS011;6279;42.192;24.326;2023-02-01T12:38:50;11.63;;;5.20;;
12429;SDS011;6279;42.192;24.326;2023-02-01T12:41:39;5.53;;;2.53;;
12429;SDS011;6279;42.192;24.326;2023-02-01T12:47:48;3.77;;;2.37;;
12429;SDS011;6279;42.192;24.326;2023-02-01T12:50:18;2.97;;;1.50;;
12429;SDS011;6279;42.192;24.326;2023-02-01T12:52:48;6.80;;;1.93;;
12429;SDS011;6279;42.192;24.326;2023-02-01T12:58:09;4.77;;;1.30;;
12429;SDS011;6279;42.192;24.326;2023-02-01T13:05:54;3.87;;;1.53;;
12429;SDS011;6279;42.192;24.326;2023-02-01T13:08:26;2.33;;;1.20;;
12429;SDS011;6279;42.192;24.326;2023-02-01T13:14:03;2.63;;;1.93;;
12429;SDS011;6279;42.192;24.326;2023-02-01T13:16:40;3.03;;;1.70;;
12429;SDS011;6279;42.192;24.326;2023-02-01T13:21:55;1.30;;;1.17;;
12429;SDS011;6279;42.192;24.326;2023-02-01T13:24:37;2.93;;;1.70;;
12429;SDS011;6279;42.192;24.326;2023-02-01T13:27:13;2.30;;;1.40;;
12429;SDS011;6279;42.192;24.326;2023-02-01T13:29:43;5.33;;;1.70;;
12429;SDS011;6279;42.192;24.326;2023-02-01T13:43:14;3.37;;;1.90;;
12429;SDS011;6279;42.192;24.326;2023-02-01T13:45:51;5.73;;;3.67;;
12429;SDS011;6279;42.192;24.326;2023-02-01T13:48:39;3.73;;;1.90;;
12429;SDS011;6279;42.192;24.326;2023-02-01T13:51:11;4.73;;;2.73;;
12429;SDS011;6279;42.192;24.326;2023-02-01T13:53:38;4.17;;;2.33;;
12429;SDS011;6279;42.192;24.326;2023-02-01T13:56:15;3.13;;;1.17;;
12429;SDS011;6279;42.192;24.326;2023-02-01T13:58:43;2.43;;;1.50;;
12429;SDS011;6279;42.192;24.326;2023-02-01T14:03:49;2.93;;;1.00;;
12429;SDS011;6279;42.192;24.326;2023-02-01T14:15:19;2.70;;;1.50;;
12429;SDS011;6279;42.192;24.326;2023-02-01T14:17:49;4.23;;;2.23;;
12429;SDS011;6279;42.192;24.326;2023-02-01T14:23:03;3.00;;;2.10;;
12429;SDS011;6279;42.192;24.326;2023-02-01T14:25:32;2.80;;;1.30;;
12429;SDS011;6279;42.192;24.326;2023-02-01T14:27:58;3.53;;;2.70;;
12429;SDS011;6279;42.192;24.326;2023-02-01T14:30:24;5.50;;;3.93;;
12429;SDS011;6279;42.192;24.326;2023-02-01T14:32:49;5.07;;;3.07;;
12429;SDS011;6279;42.192;24.326;2023-02-01T14:37:45;2.40;;;1.50;;
12429;SDS011;6279;42.192;24.326;2023-02-01T14:42:50;3.93;;;1.70;;
12429;SDS011;6279;42.192;24.326;2023-02-01T14:47:49;1.77;;;1.30;;
12429;SDS011;6279;42.192;24.326;2023-02-01T14:53:03;2.57;;;1.63;;
12429;SDS011;6279;42.192;24.326;2023-02-01T14:58:14;4.47;;;2.37;;
12429;SDS011;6279;42.192;24.326;2023-02-01T15:00:51;3.60;;;2.10;;
12429;SDS011;6279;42.192;24.326;2023-02-01T15:03:40;3.50;;;2.40;;
12429;SDS011;6279;42.192;24.326;2023-02-01T15:06:18;4.47;;;2.50;;
12429;SDS011;6279;42.192;24.326;2023-02-01T15:08:48;9.47;;;4.20;;
12429;SDS011;6279;42.192;24.326;2023-02-01T15:11:14;3.47;;;2.37;;
12429;SDS011;6279;42.192;24.326;2023-02-01T15:13:50;11.17;;;7.53;;
12429;SDS011;6279;42.192;24.326;2023-02-01T15:16:21;10.83;;;4.53;;
12429;SDS011;6279;42.192;24.326;2023-02-01T15:18:48;15.60;;;8.27;;
12429;SDS011;6279;42.192;24.326;2023-02-01T15:21:18;19.23;;;10.80;;
12429;SDS011;6279;42.192;24.326;2023-02-01T15:23:45;10.90;;;7.13;;
12429;SDS011;6279;42.192;24.326;2023-02-01T15:26:24;9.03;;;4.17;;
12429;SDS011;6279;42.192;24.326;2023-02-01T15:28:50;7.40;;;4.63;;
12429;SDS011;6279;42.192;24.326;2023-02-01T15:31:30;9.10;;;5.43;;
12429;SDS011;6279;42.192;24.326;2023-02-01T15:33:57;9.53;;;6.23;;
12429;SDS011;6279;42.192;24.326;2023-02-01T15:36:22;13.87;;;8.00;;
12429;SDS011;6279;42.192;24.326;2023-02-01T15:39:11;26.60;;;14.67;;
12429;SDS011;6279;42.192;24.326;2023-02-01T15:41:48;14.37;;;9.17;;
12429;SDS011;6279;42.192;24.326;2023-02-01T15:46:44;10.03;;;5.80;;
12429;SDS011;6279;42.192;24.326;2023-02-01T15:51:46;22.30;;;9.80;;
12429;SDS011;6279;42.192;24.326;2023-02-01T15:54:14;16.13;;;6.50;;
12429;SDS011;6279;42.192;24.326;2023-02-01T15:56:44;13.17;;;5.33;;
12429;SDS011;6279;42.192;24.326;2023-02-01T15:59:23;13.47;;;5.93;;
12429;SDS011;6279;42.192;24.326;2023-02-01T16:01:53;10.03;;;4.57;;
12429;SDS011;6279;42.192;24.326;2023-02-01T16:04:19;10.10;;;5.17;;
12429;SDS011;6279;42.192;24.326;2023-02-01T16:06:51;11.33;;;6.73;;
12429;SDS011;6279;42.192;24.326;2023-02-01T16:09:18;10.70;;;6.63;;
12429;SDS011;6279;42.192;24.326;2023-02-01T16:11:52;7.63;;;4.57;;
12429;SDS011;6279;42.192;24.326;2023-02-01T16:14:20;5.20;;;3.93;;
12429;SDS011;6279;42.192;24.326;2023-02-01T16:16:46;5.17;;;3.43;;
12429;SDS011;6279;42.192;24.326;2023-02-01T16:19:12;5.07;;;3.00;;
12429;SDS011;6279;42.192;24.326;2023-02-01T16:21:38;4.07;;;3.00;;
12429;SDS011;6279;42.192;24.326;2023-02-01T16:24:03;5.30;;;3.40;;
12429;SDS011;6279;42.192;24.326;2023-02-01T18:41:26;19.73;;;11.07;;
12429;SDS011;6279;42.192;24.326;2023-02-01T18:43:51;24.80;;;13.77;;
12429;SDS011;6279;42.192;24.326;2023-02-01T18:46:17;26.07;;;16.17;;
12429;SDS011;6279;42.192;24.326;2023-02-01T18:48:43;25.13;;;16.87;;
12429;SDS011;6279;42.192;24.326;2023-02-01T18:51:09;26.67;;;15.87;;
12429;SDS011;6279;42.192;24.326;2023-02-01T18:53:36;28.70;;;17.27;;
12429;SDS011;6279;42.192;24.326;2023-02-01T18:56:03;32.03;;;21.30;;
12429;SDS011;6279;42.192;24.326;2023-02-01T18:58:28;32.80;;;19.67;;
12429;SDS011;6279;42.192;24.326;2023-02-01T19:00:54;30.70;;;19.63;;
12429;SDS011;6279;42.192;24.326;2023-02-01T19:03:21;33.33;;;19.73;;
12429;SDS011;6279;42.192;24.326;2023-02-01T19:05:51;35.60;;;21.43;;
12429;SDS011;6279;42.192;24.326;2023-02-01T19:08:18;36.53;;;21.13;;
12429;SDS011;6279;42.192;24.326;2023-02-01T19:10:43;36.17;;;22.60;;
12429;SDS011;6279;42.192;24.326;2023-02-01T19:13:09;41.30;;;26.07;;
12429;SDS011;6279;42.192;24.326;2023-02-01T19:15:39;44.27;;;29.10;;
12429;SDS011;6279;42.192;24.326;2023-02-01T19:18:06;41.67;;;25.93;;
12429;SDS011;6279;42.192;24.326;2023-02-01T19:20:33;42.70;;;29.63;;
12429;SDS011;6279;42.192;24.326;2023-02-01T19:22:59;44.93;;;30.93;;
12429;SDS011;6279;42.192;24.326;2023-02-01T19:25:25;47.17;;;30.33;;
12429;SDS011;6279;42.192;24.326;2023-02-01T19:27:52;56.87;;;35.60;;
12429;SDS011;6279;42.192;24.326;2023-02-01T19:30:19;57.33;;;38.07;;
12429;SDS011;6279;42.192;24.326;2023-02-01T19:32:45;56.27;;;34.77;;
12429;SDS011;6279;42.192;24.326;2023-02-01T19:35:13;65.10;;;38.67;;
12429;SDS011;6279;42.192;24.326;2023-02-01T19:37:48;60.80;;;36.03;;
12429;SDS011;6279;42.192;24.326;2023-02-01T19:40:14;58.37;;;37.27;;
12429;SDS011;6279;42.192;24.326;2023-02-01T19:42:42;68.93;;;43.60;;
12429;SDS011;6279;42.192;24.326;2023-02-01T19:45:07;65.10;;;40.70;;
12429;SDS011;6279;42.192;24.326;2023-02-01T19:47:34;78.37;;;44.80;;
12429;SDS011;6279;42.192;24.326;2023-02-01T19:49:59;79.50;;;45.43;;
12429;SDS011;6279;42.192;24.326;2023-02-01T19:52:25;71.87;;;42.97;;